createdAt,value
2022-08-17T00:01:27.346Z,59.02
2022-08-17T00:03:54.742Z,59.19
2022-08-17T00:06:31.975Z,59.07
2022-08-17T00:09:01.091Z,58.55
2022-08-17T00:11:34.457Z,59.02
2022-08-17T00:14:05.589Z,59.21
2022-08-17T00:16:55.977Z,60.77
2022-08-17T00:19:24.382Z,60.85
2022-08-17T00:22:28.750Z,61.47
2022-08-17T00:24:39.347Z,61.34
2022-08-17T00:27:05.736Z,61.38
2022-08-17T00:29:32.102Z,61.99
2022-08-17T00:31:58.501Z,62.15
2022-08-17T00:34:25.225Z,62.98
2022-08-17T00:36:54.238Z,63.09
2022-08-17T00:39:20.622Z,62.89
2022-08-17T00:41:47.655Z,63.87
2022-08-17T00:44:15.476Z,63.89
2022-08-17T00:46:43.791Z,64.07
2022-08-17T00:49:13.160Z,63.37
2022-08-17T00:51:50.515Z,64.09
2022-08-17T00:54:22.090Z,64.04
2022-08-17T00:56:56.693Z,64.10
2022-08-17T00:59:27.040Z,63.66
2022-08-17T01:01:53.738Z,64.12
2022-08-17T01:04:22.290Z,61.38
2022-08-17T01:06:49.762Z,62.09
2022-08-17T01:09:17.810Z,61.84
2022-08-17T01:11:46.117Z,63.53
2022-08-17T01:14:13.217Z,64.26
2022-08-17T01:16:39.829Z,64.00
2022-08-17T01:19:28.766Z,63.78
2022-08-17T01:22:08.977Z,63.81
2022-08-17T01:24:41.134Z,64.53
2022-08-17T01:27:10.501Z,63.77
2022-08-17T01:29:39.679Z,63.75
2022-08-17T01:32:08.437Z,63.84
2022-08-17T01:34:35.129Z,64.55
2022-08-17T01:37:10.642Z,64.00
2022-08-17T01:39:47.897Z,64.36
2022-08-17T01:42:24.486Z,64.68
2022-08-17T01:44:55.330Z,64.56
2022-08-17T01:47:21.838Z,64.40
2022-08-17T01:49:48.758Z,64.21
2022-08-17T01:52:15.677Z,63.49
2022-08-17T01:54:45.207Z,63.90
2022-08-17T01:57:11.794Z,63.92
2022-08-17T01:59:38.125Z,64.82
2022-08-17T02:02:05.194Z,62.74
2022-08-17T02:04:32.132Z,64.26
2022-08-17T02:06:58.568Z,64.21
2022-08-17T02:09:29.841Z,64.20
2022-08-17T02:11:58.270Z,64.21
2022-08-17T02:14:25.139Z,63.16
2022-08-17T02:16:52.196Z,63.61
2022-08-17T02:19:19.034Z,64.72
2022-08-17T02:21:47.776Z,63.36
2022-08-17T02:25:00.058Z,64.19
2022-08-17T02:27:08.191Z,63.67
2022-08-17T02:29:34.567Z,63.08
2022-08-17T02:32:01.662Z,62.97
2022-08-17T02:34:28.166Z,63.40
2022-08-17T02:36:54.622Z,64.15
2022-08-17T02:39:21.590Z,65.37
2022-08-17T02:41:48.498Z,65.29
2022-08-17T02:44:14.957Z,65.45
2022-08-17T02:47:01.350Z,65.93
2022-08-17T02:49:27.761Z,65.40
2022-08-17T02:51:54.098Z,65.80
2022-08-17T02:54:41.713Z,65.98
2022-08-17T02:57:06.871Z,65.40
2022-08-17T02:59:33.201Z,66.88
2022-08-17T03:01:59.571Z,66.42
2022-08-17T03:04:26.062Z,66.34
2022-08-17T03:06:52.687Z,65.56
2022-08-17T03:09:19.044Z,66.93
2022-08-17T03:11:45.375Z,66.65
2022-08-17T03:14:12.402Z,65.78
2022-08-17T03:16:38.828Z,67.22
2022-08-17T03:19:05.726Z,67.35
2022-08-17T03:21:32.104Z,66.02
2022-08-17T03:23:58.600Z,66.66
2022-08-17T03:26:25.055Z,66.83
2022-08-17T03:28:56.060Z,67.39
2022-08-17T03:31:22.514Z,67.61
2022-08-17T03:33:48.993Z,68.61
2022-08-17T03:36:15.506Z,68.74
2022-08-17T03:38:41.873Z,67.53
2022-08-17T03:41:08.296Z,66.35
2022-08-17T03:43:34.803Z,67.41
2022-08-17T03:46:28.453Z,67.48
2022-08-17T03:49:34.202Z,66.61
2022-08-17T03:52:29.479Z,67.00
2022-08-17T03:55:14.220Z,67.75
2022-08-17T03:57:40.540Z,66.81
2022-08-17T04:00:07.327Z,67.53
2022-08-17T04:02:34.432Z,66.96
2022-08-17T04:05:01.563Z,66.87
2022-08-17T04:07:30.539Z,66.37
2022-08-17T04:09:57.892Z,66.83
2022-08-17T04:12:30.474Z,67.91
2022-08-17T04:14:57.102Z,67.56
2022-08-17T04:17:27.553Z,67.88
2022-08-17T04:19:55.140Z,66.91
2022-08-17T04:22:31.729Z,67.02
2022-08-17T04:25:09.887Z,66.76
2022-08-17T04:27:36.427Z,66.86
2022-08-17T04:30:06.814Z,65.81
2022-08-17T04:33:02.322Z,65.47
2022-08-17T04:35:22.556Z,66.48
2022-08-17T04:37:48.981Z,64.34
2022-08-17T04:40:34.741Z,65.08
2022-08-17T04:43:03.529Z,64.08
2022-08-17T04:45:32.346Z,65.24
2022-08-17T04:48:00.157Z,64.55
2022-08-17T04:50:26.933Z,65.59
2022-08-17T04:52:53.300Z,66.92
2022-08-17T04:55:19.779Z,65.63
2022-08-17T04:57:46.200Z,66.85
2022-08-17T05:00:13.138Z,64.66
2022-08-17T05:02:50.969Z,65.64
2022-08-17T05:05:29.701Z,65.02
2022-08-17T05:08:02.070Z,66.10
2022-08-17T05:10:31.781Z,65.57
2022-08-17T05:13:00.565Z,65.48
2022-08-17T05:15:28.350Z,64.17
2022-08-17T05:17:59.578Z,64.90
2022-08-17T05:20:26.157Z,64.82
2022-08-17T05:22:55.206Z,64.49
2022-08-17T05:25:25.001Z,65.45
2022-08-17T05:27:53.083Z,65.03
2022-08-17T05:30:19.661Z,63.58
2022-08-17T05:32:58.224Z,64.93
2022-08-17T05:35:27.119Z,64.54
2022-08-17T05:37:54.160Z,63.73
2022-08-17T05:40:23.949Z,62.91
2022-08-17T05:42:50.583Z,63.00
2022-08-17T05:45:46.042Z,63.75
2022-08-17T05:48:10.088Z,63.78
2022-08-17T05:50:55.615Z,62.70
2022-08-17T05:53:50.498Z,62.21
2022-08-17T05:56:54.543Z,64.05
2022-08-17T05:59:35.434Z,63.51
2022-08-17T06:02:16.074Z,63.81
2022-08-17T06:05:19.925Z,64.66
2022-08-17T06:07:52.370Z,66.59
2022-08-17T06:10:39.912Z,64.85
2022-08-17T06:13:38.537Z,66.22
2022-08-17T06:16:31.145Z,64.76
2022-08-17T06:19:06.390Z,65.12
2022-08-17T06:21:39.379Z,66.45
2022-08-17T06:24:21.317Z,64.92
2022-08-17T06:26:48.193Z,63.10
2022-08-17T06:29:37.074Z,62.12
2022-08-17T06:32:07.426Z,62.95
2022-08-17T06:34:34.066Z,62.06
2022-08-17T06:37:20.008Z,62.03
2022-08-17T06:39:58.532Z,61.01
2022-08-17T06:43:04.010Z,62.51
2022-08-17T06:45:34.526Z,61.10
2022-08-17T06:48:18.718Z,61.15
2022-08-17T06:50:53.329Z,60.92
2022-08-17T06:53:43.799Z,60.43
2022-08-17T06:56:13.652Z,60.16
2022-08-17T06:58:43.246Z,59.21
2022-08-17T07:01:14.853Z,58.96
2022-08-17T07:03:55.345Z,58.28
2022-08-17T07:06:26.463Z,58.16
2022-08-17T07:09:01.569Z,57.04
2022-08-17T07:11:33.950Z,56.48
2022-08-17T07:14:19.412Z,56.56
2022-08-17T07:16:50.373Z,55.92
2022-08-17T07:19:20.108Z,56.15
2022-08-17T07:22:05.370Z,58.62
2022-08-17T07:24:51.845Z,58.92
2022-08-17T07:27:31.132Z,57.16
2022-08-17T07:30:25.986Z,57.88
2022-08-17T07:33:01.385Z,56.90
2022-08-17T07:35:37.680Z,56.48
2022-08-17T07:38:29.003Z,56.72
2022-08-17T07:41:01.959Z,57.10
2022-08-17T07:43:31.171Z,56.86
2022-08-17T07:46:35.581Z,56.08
2022-08-17T07:49:07.335Z,56.47
2022-08-17T07:51:39.578Z,55.79
2022-08-17T07:54:15.149Z,54.88
2022-08-17T07:56:44.664Z,55.35
2022-08-17T07:59:23.592Z,56.82
2022-08-17T08:02:26.430Z,56.21
2022-08-17T08:05:16.228Z,56.77
2022-08-17T08:08:25.136Z,58.15
2022-08-17T08:11:15.224Z,58.04
2022-08-17T08:13:43.715Z,58.18
2022-08-17T08:16:26.016Z,58.37
2022-08-17T08:18:58.708Z,57.95
2022-08-17T08:21:51.327Z,59.17
2022-08-17T08:24:45.279Z,58.66
2022-08-17T08:27:27.140Z,58.58
2022-08-17T08:30:09.919Z,58.80
2022-08-17T08:33:14.552Z,59.02
2022-08-17T08:35:55.437Z,60.04
2022-08-17T08:38:28.216Z,60.47
2022-08-17T08:41:12.963Z,61.26
2022-08-17T08:43:52.252Z,61.24
2022-08-17T08:46:36.880Z,61.48
2022-08-17T08:49:45.095Z,62.02
2022-08-17T08:52:30.779Z,61.96
2022-08-17T08:55:08.217Z,62.50
2022-08-17T08:57:41.037Z,62.55
2022-08-17T09:00:15.571Z,62.00
2022-08-17T09:03:12.572Z,62.30
2022-08-17T09:06:02.804Z,62.93
2022-08-17T09:08:34.999Z,63.37
2022-08-17T09:11:23.241Z,63.58
2022-08-17T09:13:54.453Z,63.99
2022-08-17T09:16:46.329Z,63.61
2022-08-17T09:19:30.370Z,64.12
2022-08-17T09:22:36.168Z,63.11
2022-08-17T09:25:12.938Z,63.12
2022-08-17T09:27:54.712Z,62.84
2022-08-17T09:30:21.709Z,62.64
2022-08-17T09:32:56.362Z,62.06
2022-08-17T09:35:33.805Z,62.63
2022-08-17T09:38:32.789Z,62.04
2022-08-17T09:41:09.245Z,62.99
2022-08-17T09:43:51.503Z,62.47
2022-08-17T09:46:23.673Z,63.21
2022-08-17T09:48:57.483Z,63.29
2022-08-17T09:51:40.903Z,62.53
2022-08-17T09:54:40.300Z,62.50
2022-08-17T09:57:31.841Z,62.87
2022-08-17T10:00:16.046Z,64.35
2022-08-17T10:02:55.188Z,63.97
2022-08-17T10:05:27.304Z,63.93
2022-08-17T10:08:02.613Z,64.61
2022-08-17T10:10:56.891Z,65.71
2022-08-17T10:13:34.354Z,64.83
2022-08-17T10:16:15.993Z,65.47
2022-08-17T10:19:07.091Z,64.76
2022-08-17T10:22:00.836Z,65.08
2022-08-17T10:25:21.881Z,65.36
2022-08-17T10:27:55.170Z,65.78
2022-08-17T10:30:25.768Z,64.14
2022-08-17T10:32:55.135Z,63.41
2022-08-17T10:35:52.295Z,63.61
2022-08-17T10:38:46.158Z,64.56
2022-08-17T10:41:25.626Z,63.87
2022-08-17T10:44:38.973Z,63.58
2022-08-17T10:47:14.894Z,65.00
2022-08-17T10:49:53.641Z,62.96
2022-08-17T10:52:20.034Z,62.86
2022-08-17T10:54:48.962Z,62.46
2022-08-17T10:57:31.561Z,61.87
2022-08-17T10:59:59.946Z,62.08
2022-08-17T11:02:38.953Z,60.54
2022-08-17T11:05:27.456Z,61.61
2022-08-17T11:08:12.546Z,59.26
2022-08-17T11:10:38.904Z,59.51
2022-08-17T11:13:29.827Z,54.93
2022-08-17T11:16:17.354Z,51.73
2022-08-17T11:19:11.191Z,48.84
2022-08-17T11:21:55.160Z,47.35
2022-08-17T11:24:44.101Z,45.39
2022-08-17T11:27:21.878Z,44.55
2022-08-17T11:30:02.268Z,46.83
2022-08-17T11:32:54.683Z,49.12
2022-08-17T11:35:21.602Z,50.11
2022-08-17T11:37:53.819Z,51.00
2022-08-17T11:40:20.198Z,50.12
2022-08-17T11:42:54.197Z,50.69
2022-08-17T11:45:32.608Z,50.93
2022-08-17T11:49:00.132Z,49.59
2022-08-17T11:51:54.439Z,50.24
2022-08-17T11:54:34.441Z,50.01
2022-08-17T11:57:27.086Z,52.72
2022-08-17T12:00:11.802Z,51.25
2022-08-17T12:02:47.471Z,52.31
2022-08-17T12:05:17.219Z,53.61
2022-08-17T12:07:51.950Z,49.29
2022-08-17T12:10:24.105Z,48.24
2022-08-17T12:12:53.116Z,47.31
2022-08-17T12:15:31.213Z,46.07
2022-08-17T12:17:58.676Z,45.35
2022-08-17T12:20:33.271Z,43.79
2022-08-17T12:23:05.676Z,44.55
2022-08-17T12:25:42.305Z,44.65
2022-08-17T12:28:24.824Z,43.52
2022-08-17T12:30:52.338Z,45.39
2022-08-17T12:33:25.559Z,44.89
2022-08-17T12:36:03.181Z,43.10
2022-08-17T12:38:35.923Z,46.04
2022-08-17T12:41:24.561Z,45.23
2022-08-17T12:44:07.969Z,45.53
2022-08-17T12:46:51.887Z,45.57
2022-08-17T12:49:24.226Z,45.90
2022-08-17T12:51:53.678Z,45.38
2022-08-17T12:54:29.135Z,46.25
2022-08-17T12:56:55.900Z,46.03
2022-08-17T12:59:30.130Z,47.62
2022-08-17T13:01:57.512Z,48.71
2022-08-17T13:04:24.164Z,48.14
2022-08-17T13:06:59.634Z,48.50
2022-08-17T13:09:35.363Z,49.49
2022-08-17T13:12:06.850Z,47.74
2022-08-17T13:14:34.261Z,47.47
2022-08-17T13:17:07.354Z,46.70
2022-08-17T13:19:47.806Z,47.01
2022-08-17T13:22:14.291Z,46.87
2022-08-17T13:24:53.018Z,47.07
2022-08-17T13:27:21.326Z,48.13
2022-08-17T13:29:53.611Z,48.10
2022-08-17T13:32:23.070Z,49.06
2022-08-17T13:35:15.556Z,47.53
2022-08-17T13:37:40.983Z,47.60
2022-08-17T13:40:09.147Z,46.11
2022-08-17T13:42:51.700Z,46.10
2022-08-17T13:45:34.952Z,47.31
2022-08-17T13:48:21.947Z,46.85
2022-08-17T13:51:05.180Z,46.51
2022-08-17T13:53:37.406Z,46.96
2022-08-17T13:56:37.341Z,47.63
2022-08-17T13:59:11.201Z,49.75
2022-08-17T14:01:49.558Z,49.37
2022-08-17T14:04:23.124Z,49.92
2022-08-17T14:06:53.069Z,51.77
2022-08-17T14:09:24.201Z,52.67
2022-08-17T14:11:51.630Z,52.85
2022-08-17T14:14:19.089Z,52.52
2022-08-17T14:16:45.561Z,52.92
2022-08-17T14:19:14.133Z,53.79
2022-08-17T14:21:44.200Z,54.27
2022-08-17T14:24:32.059Z,54.32
2022-08-17T14:27:00.035Z,54.49
2022-08-17T14:29:28.613Z,56.03
2022-08-17T14:31:55.988Z,54.97
2022-08-17T14:34:23.896Z,55.78
2022-08-17T14:36:50.851Z,54.61
2022-08-17T14:39:18.649Z,54.35
2022-08-17T14:41:45.093Z,54.58
2022-08-17T14:44:12.423Z,55.23
2022-08-17T14:46:44.056Z,56.04
2022-08-17T14:49:12.825Z,56.18
2022-08-17T14:51:43.895Z,55.51
2022-08-17T14:54:28.861Z,55.16
2022-08-17T14:57:14.827Z,53.41
2022-08-17T14:59:46.980Z,54.93
2022-08-17T15:02:13.713Z,54.54
2022-08-17T15:04:45.399Z,54.73
2022-08-17T15:07:12.089Z,52.62
2022-08-17T15:09:38.891Z,52.33
2022-08-17T15:12:06.501Z,53.49
2022-08-17T15:14:34.869Z,54.13
2022-08-17T15:17:03.510Z,54.38
2022-08-17T15:19:30.009Z,54.73
2022-08-17T15:21:56.449Z,55.52
2022-08-17T15:24:22.802Z,56.08
2022-08-17T15:26:49.154Z,55.87
2022-08-17T15:29:15.530Z,55.53
2022-08-17T15:31:41.930Z,55.32
2022-08-17T15:34:08.357Z,55.32
2022-08-17T15:36:35.771Z,55.50
2022-08-17T15:39:03.066Z,54.48
2022-08-17T15:41:29.749Z,54.13
2022-08-17T15:43:56.345Z,54.42
2022-08-17T15:46:25.425Z,54.56
2022-08-17T15:48:56.462Z,55.40
2022-08-17T15:51:27.225Z,55.98
2022-08-17T15:53:56.509Z,57.34
2022-08-17T15:56:25.733Z,57.74
2022-08-17T15:58:54.675Z,57.60
2022-08-17T16:02:27.734Z,57.77
2022-08-17T16:04:29.532Z,57.77
2022-08-17T16:06:56.724Z,58.09
2022-08-17T16:09:23.108Z,58.61
2022-08-17T16:11:52.095Z,59.51
2022-08-17T16:14:22.303Z,59.90
2022-08-17T16:16:49.530Z,59.53
2022-08-17T16:19:16.145Z,59.65
2022-08-17T16:21:43.271Z,59.93
2022-08-17T16:24:12.843Z,58.63
2022-08-17T16:26:40.667Z,58.76
2022-08-17T16:29:07.760Z,58.18
2022-08-17T16:31:36.003Z,58.09
2022-08-17T16:34:16.306Z,59.03
2022-08-17T16:36:55.014Z,58.98
2022-08-17T16:39:24.468Z,58.83
2022-08-17T16:41:50.848Z,59.58
2022-08-17T16:44:21.682Z,58.86
2022-08-17T16:46:50.103Z,58.42
2022-08-17T16:49:35.244Z,58.75
2022-08-17T16:52:05.487Z,58.57
2022-08-17T16:54:32.513Z,58.40
2022-08-17T16:56:59.070Z,59.55
2022-08-17T16:59:30.999Z,59.56
2022-08-17T17:02:11.267Z,60.36
2022-08-17T17:04:44.824Z,60.48
2022-08-17T17:07:25.630Z,60.88
2022-08-17T17:09:55.290Z,61.05
2022-08-17T17:13:03.774Z,61.75
2022-08-17T17:15:10.255Z,61.19
2022-08-17T17:17:38.585Z,60.97
2022-08-17T17:20:29.118Z,61.78
2022-08-17T17:23:09.859Z,61.97
2022-08-17T17:26:00.084Z,61.69
2022-08-17T17:28:36.253Z,62.27
2022-08-17T17:31:14.823Z,62.78
2022-08-17T17:33:53.233Z,63.06
2022-08-17T17:36:45.616Z,63.26
2022-08-17T17:39:18.109Z,62.07
2022-08-17T17:41:51.394Z,62.00
2022-08-17T17:44:24.391Z,62.47
2022-08-17T17:46:54.656Z,63.75
2022-08-17T17:49:21.168Z,63.58
2022-08-17T17:52:09.177Z,63.47
2022-08-17T17:55:07.275Z,63.79
2022-08-17T17:57:46.840Z,63.77
2022-08-17T18:00:42.714Z,64.40
2022-08-17T18:03:09.271Z,64.38
2022-08-17T18:06:02.639Z,64.83
2022-08-17T18:08:53.148Z,64.83
2022-08-17T18:11:26.040Z,65.28
2022-08-17T18:14:20.074Z,65.71
2022-08-17T18:16:47.991Z,67.05
2022-08-17T18:19:19.732Z,67.00
2022-08-17T18:21:52.129Z,68.47
2022-08-17T18:24:32.945Z,68.06
2022-08-17T18:27:01.873Z,68.34
2022-08-17T18:29:45.533Z,68.28
2022-08-17T18:32:28.149Z,70.06
2022-08-17T18:35:01.805Z,69.88
2022-08-17T18:37:38.789Z,70.13
2022-08-17T18:40:17.356Z,70.46
2022-08-17T18:42:46.527Z,70.49
2022-08-17T18:45:13.504Z,70.53
2022-08-17T18:47:54.155Z,70.65
2022-08-17T18:50:27.309Z,71.86
2022-08-17T18:52:55.966Z,72.53
2022-08-17T18:55:28.883Z,73.09
2022-08-17T18:57:59.522Z,73.11
2022-08-17T19:00:36.821Z,73.14
2022-08-17T19:03:18.615Z,73.51
2022-08-17T19:05:49.911Z,72.70
2022-08-17T19:08:28.627Z,73.81
2022-08-17T19:11:09.401Z,73.27
2022-08-17T19:13:43.478Z,74.17
2022-08-17T19:16:20.010Z,74.78
2022-08-17T19:18:51.995Z,74.50
2022-08-17T19:21:25.073Z,75.34
2022-08-17T19:24:11.657Z,75.11
2022-08-17T19:26:54.672Z,76.10
2022-08-17T19:29:36.812Z,76.70
2022-08-17T19:32:04.166Z,76.99
2022-08-17T19:34:34.631Z,77.08
2022-08-17T19:37:40.437Z,77.21
2022-08-17T19:44:05.918Z,78.74
2022-08-17T19:46:59.560Z,78.63
2022-08-17T19:49:47.980Z,78.98
2022-08-17T19:52:37.346Z,79.10
2022-08-17T19:55:22.933Z,79.05
2022-08-17T19:58:01.853Z,78.33
2022-08-17T20:00:29.063Z,78.78
2022-08-17T20:03:05.612Z,78.93
2022-08-17T20:06:08.714Z,78.70
2022-08-17T20:08:26.366Z,78.43
2022-08-17T20:11:09.024Z,78.37
2022-08-17T20:13:43.556Z,78.79
2022-08-17T20:16:11.077Z,79.11
2022-08-17T20:18:58.621Z,79.75
2022-08-17T20:21:31.449Z,80.52
2022-08-17T20:24:17.670Z,80.43
2022-08-17T20:26:58.183Z,80.77
2022-08-17T20:29:31.948Z,81.28
2022-08-17T20:32:17.456Z,81.57
2022-08-17T20:34:46.355Z,81.49
2022-08-17T20:37:12.689Z,81.35
2022-08-17T20:39:52.302Z,81.94
2022-08-17T20:42:21.767Z,82.70
2022-08-17T20:44:54.233Z,83.03
2022-08-17T20:47:27.368Z,83.46
2022-08-17T20:50:15.043Z,83.24
2022-08-17T20:52:51.970Z,83.28
2022-08-17T20:55:51.678Z,83.68
2022-08-17T20:58:29.936Z,83.77
2022-08-17T21:00:57.644Z,83.91
2022-08-17T21:03:51.101Z,83.61
2022-08-17T21:06:21.649Z,83.90
2022-08-17T21:09:18.690Z,83.83
2022-08-17T21:12:04.233Z,83.79
2022-08-17T21:14:59.866Z,84.76
2022-08-17T21:17:29.642Z,85.15
2022-08-17T21:20:40.060Z,85.55
2022-08-17T21:23:16.192Z,85.52
2022-08-17T21:25:55.238Z,85.70
2022-08-17T21:28:29.958Z,85.71
2022-08-17T21:31:08.425Z,86.22
2022-08-17T21:33:38.537Z,86.96
2022-08-17T21:36:19.973Z,87.21
2022-08-17T21:38:56.994Z,87.77
2022-08-17T21:41:29.466Z,88.00
2022-08-17T21:44:21.868Z,88.89
2022-08-17T21:46:51.557Z,88.64
2022-08-17T21:49:21.201Z,88.81
2022-08-17T21:51:56.066Z,89.32
2022-08-17T21:54:36.844Z,89.85
2022-08-17T21:57:14.457Z,89.74
2022-08-17T21:59:43.554Z,89.83
2022-08-17T22:02:23.747Z,89.88
2022-08-17T22:05:10.005Z,89.71
2022-08-17T22:07:43.777Z,90.10
2022-08-17T22:10:30.649Z,90.75
2022-08-17T22:13:17.018Z,91.61
2022-08-17T22:15:47.059Z,92.91
2022-08-17T22:18:19.868Z,93.81
2022-08-17T22:20:51.829Z,94.45
2022-08-17T22:23:47.669Z,94.85
2022-08-17T22:26:16.632Z,95.55
2022-08-17T22:28:47.417Z,95.69
2022-08-17T22:31:17.144Z,95.85
2022-08-17T22:33:50.027Z,95.47
2022-08-17T22:36:22.920Z,95.72
2022-08-17T22:38:51.077Z,96.15
2022-08-17T22:41:26.554Z,96.50
2022-08-17T22:43:54.981Z,96.32
2022-08-17T22:46:24.008Z,95.47
2022-08-17T22:48:53.742Z,95.61
2022-08-17T22:51:23.813Z,96.32
2022-08-17T22:54:14.817Z,96.18
2022-08-17T22:57:18.858Z,96.78
2022-08-17T22:59:51.594Z,97.73
2022-08-17T23:02:24.589Z,98.21
2022-08-17T23:05:15.711Z,98.92
2022-08-17T23:07:44.375Z,99.10
2022-08-17T23:10:13.253Z,99.72
2022-08-17T23:12:39.924Z,99.45
2022-08-17T23:15:16.514Z,99.70
2022-08-17T23:17:43.182Z,99.56
2022-08-17T23:20:14.106Z,99.72
2022-08-17T23:22:51.537Z,100.00
2022-08-17T23:25:27.961Z,100.00
2022-08-17T23:27:55.514Z,100.00
2022-08-17T23:30:25.292Z,100.00
2022-08-17T23:32:54.200Z,100.00
2022-08-17T23:35:40.079Z,100.00
2022-08-17T23:38:09.665Z,100.00
2022-08-17T23:40:37.638Z,100.00
2022-08-17T23:43:11.499Z,100.00
2022-08-17T23:45:55.139Z,100.00
2022-08-17T23:48:34.973Z,100.00
2022-08-17T23:51:18.940Z,100.00
2022-08-17T23:53:49.966Z,100.00
2022-08-17T23:56:20.985Z,100.00
2022-08-17T23:58:47.361Z,100.00
